Upstream stations:
Downstream station:
SHEF ID: FLRK1 COTTONWOOD R NR FLORENCE, KS
STATION TYPE:
Regulating: Stage = 21.00, Flow = 9471
PRECIP STAGE STAGE(2) RIV-FLOW BAT-LOAD
in ft ft cfs volt
Ccp-Rev Ccp-Rev Ccp-Rev Ccp-Rev Ccp-Rev
(US/Central)
04/12 00:00 0.00 3.10 2.91 64 12.89
04/12 01:00 0.00 3.08 2.90 59 12.89
04/12 02:00 0.00 3.07 2.91 57 12.89
04/12 03:00 0.00 3.07 2.91 57 12.83
04/12 04:00 0.00 3.08 2.91 59 12.83
04/12 05:00 0.00 3.07 2.91 57 12.77
04/12 06:00 0.00 3.08 2.91 59 12.77
04/12 07:00 0.00 3.06 2.91 54 12.77
04/12 08:00 0.00 3.07 2.91 57 12.77
04/12 09:00 0.00 3.05 2.92 52 12.83
04/12 10:00 0.00 3.04 2.92 50 13.42
04/12 11:00 0.00 3.04 2.92 50 13.53
04/12 12:00 0.00 3.05 2.92 52 13.53
04/12 13:00 0.00 3.04 2.92 50 13.53
04/12 14:00 0.00 3.04 2.92 50 13.83
04/12 15:00 0.00 3.03 2.92 47 13.59
04/12 16:00 0.00 3.04 2.92 50 13.53
04/12 17:00 0.00 3.03 2.93 47 13.53
04/12 18:00 0.00 3.02 2.92 45 13.65
04/12 19:00 0.00 3.05 2.92 52 13.42
04/12 20:00 0.00 3.05 2.91 52 13.30
04/12 21:00 0.00 3.04 2.93 50 13.07
04/12 22:00 0.00 3.04 2.92 50 13.00
04/12 23:00 0.00 3.06 2.90 54 13.00